createdAt,value
2018-03-20T07:21:33.781Z,-50.00
2018-03-20T07:22:33.721Z,-57.00
2018-03-20T07:24:27.557Z,-54.00
2018-03-20T07:25:27.493Z,-56.00
2018-03-20T07:27:21.294Z,-57.00
2018-03-20T07:28:21.271Z,-57.00
2018-03-20T07:30:15.091Z,-54.00
2018-03-20T07:31:15.041Z,-54.00
2018-03-20T07:33:08.848Z,-54.00
2018-03-20T07:34:08.808Z,-55.00
2018-03-20T07:36:02.646Z,-55.00
2018-03-20T07:37:02.579Z,-55.00
2018-03-20T07:38:56.382Z,-54.00
2018-03-20T07:39:56.383Z,-54.00
2018-03-20T07:41:50.162Z,-51.00
2018-03-20T07:42:50.116Z,-51.00
2018-03-20T07:44:43.929Z,-51.00
2018-03-20T07:45:43.896Z,-51.00
2018-03-20T07:47:37.720Z,-51.00
2018-03-20T07:48:37.669Z,-51.00
2018-03-20T07:50:31.505Z,-51.00
2018-03-20T07:51:31.489Z,-53.00
2018-03-20T07:53:25.245Z,-52.00
2018-03-20T07:54:25.216Z,-52.00
2018-03-20T07:56:19.046Z,-57.00
2018-03-20T07:57:18.986Z,-55.00
2018-03-20T07:59:12.795Z,-57.00
2018-03-20T08:00:12.764Z,-56.00
2018-03-20T08:02:06.851Z,-54.00
2018-03-20T08:03:06.534Z,-55.00
2018-03-20T08:05:00.836Z,-57.00
2018-03-20T08:06:00.801Z,-57.00
2018-03-20T08:07:54.677Z,-56.00
2018-03-20T08:08:54.581Z,-56.00
2018-03-20T08:10:48.384Z,-55.00
2018-03-20T08:11:48.348Z,-54.00
2018-03-20T08:13:42.216Z,-54.00
2018-03-20T08:14:42.149Z,-54.00
2018-03-20T08:16:36.001Z,-54.00
2018-03-20T08:17:35.931Z,-54.00
2018-03-20T08:19:29.843Z,-54.00
2018-03-20T08:20:29.782Z,-54.00
2018-03-20T08:22:23.609Z,-55.00
2018-03-20T08:23:23.556Z,-55.00
2018-03-20T08:24:23.529Z,-54.00
2018-03-20T08:25:23.501Z,-53.00
2018-03-20T08:26:23.474Z,-57.00
2018-03-20T08:27:23.445Z,-54.00
2018-03-20T08:28:23.414Z,-54.00
2018-03-20T08:29:23.390Z,-55.00
2018-03-20T08:30:23.363Z,-55.00
2018-03-20T08:31:23.337Z,-55.00
2018-03-20T08:32:23.312Z,-56.00
2018-03-20T08:33:23.284Z,-56.00
2018-03-20T08:34:23.259Z,-55.00
2018-03-20T08:35:23.229Z,-56.00
2018-03-20T08:36:23.198Z,-56.00
2018-03-20T08:37:23.174Z,-55.00
2018-03-20T08:38:23.146Z,-56.00
2018-03-20T08:39:23.118Z,-56.00
2018-03-20T08:40:23.090Z,-56.00
2018-03-20T08:41:23.066Z,-56.00
2018-03-20T08:42:23.035Z,-56.00
2018-03-20T08:43:23.009Z,-56.00
2018-03-20T08:44:23.041Z,-56.00
2018-03-20T08:45:22.955Z,-56.00
2018-03-20T08:46:22.926Z,-56.00
2018-03-20T08:47:22.904Z,-55.00
2018-03-20T08:48:22.877Z,-54.00
2018-03-20T08:49:22.845Z,-54.00
2018-03-20T08:50:22.831Z,-54.00
2018-03-20T08:51:22.796Z,-54.00
2018-03-20T08:52:22.767Z,-54.00
2018-03-20T08:53:22.749Z,-54.00
2018-03-20T08:54:22.709Z,-54.00
2018-03-20T08:55:22.683Z,-54.00
2018-03-20T08:56:22.656Z,-54.00
2018-03-20T08:57:22.628Z,-54.00
2018-03-20T08:58:22.604Z,-54.00
2018-03-20T08:59:22.573Z,-54.00
2018-03-20T09:00:22.553Z,-54.00
2018-03-20T09:01:22.522Z,-54.00
2018-03-20T09:02:22.490Z,-54.00
2018-03-20T09:03:22.473Z,-54.00
2018-03-20T09:04:22.434Z,-54.00
2018-03-20T09:05:22.422Z,-54.00
2018-03-20T09:06:22.427Z,-54.00
2018-03-20T09:07:22.356Z,-54.00
2018-03-20T09:08:22.326Z,-54.00
2018-03-20T09:09:22.302Z,-54.00
2018-03-20T09:10:22.273Z,-56.00
2018-03-20T09:11:22.245Z,-55.00
2018-03-20T09:12:22.249Z,-54.00
2018-03-20T09:13:22.193Z,-54.00
2018-03-20T09:14:22.163Z,-53.00
2018-03-20T09:15:22.137Z,-54.00
2018-03-20T09:16:22.110Z,-55.00
2018-03-20T09:17:22.084Z,-54.00
2018-03-20T09:18:22.063Z,-56.00
2018-03-20T09:19:22.032Z,-56.00
2018-03-20T09:20:22.001Z,-54.00
2018-03-20T09:21:21.975Z,-56.00
2018-03-20T09:22:21.955Z,-55.00
2018-03-20T09:23:21.923Z,-55.00
2018-03-20T09:24:21.892Z,-57.00
2018-03-20T09:25:21.869Z,-56.00
2018-03-20T09:26:21.839Z,-56.00
2018-03-20T09:27:21.810Z,-56.00
2018-03-20T09:28:21.788Z,-56.00
2018-03-20T09:29:21.761Z,-56.00
2018-03-20T09:30:21.733Z,-55.00
2018-03-20T09:31:21.706Z,-55.00
2018-03-20T09:32:21.676Z,-57.00
2018-03-20T09:33:21.651Z,-55.00
2018-03-20T09:34:21.623Z,-58.00
2018-03-20T09:35:21.596Z,-55.00
2018-03-20T09:36:21.571Z,-56.00
2018-03-20T09:37:21.547Z,-55.00
2018-03-20T09:38:21.517Z,-56.00
2018-03-20T09:39:21.490Z,-56.00
2018-03-20T09:40:21.464Z,-56.00
2018-03-20T09:41:21.433Z,-56.00
2018-03-20T09:42:21.412Z,-56.00
2018-03-20T09:43:21.405Z,-56.00
2018-03-20T09:44:21.352Z,-56.00
2018-03-20T09:45:21.330Z,-56.00
2018-03-20T09:46:21.306Z,-56.00
2018-03-20T09:47:21.275Z,-56.00
2018-03-20T09:48:21.246Z,-56.00
2018-03-20T09:49:21.226Z,-56.00
2018-03-20T09:50:21.191Z,-56.00
2018-03-20T09:51:21.168Z,-56.00
2018-03-20T09:52:21.143Z,-56.00
2018-03-20T09:53:21.110Z,-56.00
2018-03-20T09:54:21.086Z,-56.00
2018-03-20T09:55:21.059Z,-56.00
2018-03-20T09:56:21.032Z,-56.00
2018-03-20T09:57:21.006Z,-56.00
2018-03-20T09:58:21.019Z,-56.00
2018-03-20T09:59:20.956Z,-56.00
2018-03-20T10:00:20.924Z,-56.00
2018-03-20T10:01:20.901Z,-56.00
2018-03-20T10:02:20.891Z,-56.00
2018-03-20T10:03:20.846Z,-56.00
2018-03-20T10:04:20.823Z,-56.00
2018-03-20T10:05:20.793Z,-56.00
2018-03-20T10:06:20.763Z,-56.00
2018-03-20T10:07:20.739Z,-56.00
2018-03-20T10:08:20.712Z,-56.00
2018-03-20T10:09:20.687Z,-56.00
2018-03-20T10:10:20.656Z,-56.00
2018-03-20T10:11:20.632Z,-56.00
2018-03-20T10:12:20.603Z,-55.00
2018-03-20T10:13:20.579Z,-56.00
2018-03-20T10:14:20.548Z,-55.00
2018-03-20T10:15:20.528Z,-56.00
2018-03-20T10:16:20.498Z,-59.00
2018-03-20T10:17:20.490Z,-57.00
2018-03-20T10:18:20.442Z,-57.00
2018-03-20T10:19:20.415Z,-55.00
2018-03-20T10:20:20.439Z,-55.00
2018-03-20T10:21:20.363Z,-56.00
2018-03-20T10:22:20.349Z,-58.00
2018-03-20T10:23:20.309Z,-57.00
2018-03-20T10:24:20.283Z,-57.00
2018-03-20T10:25:20.255Z,-57.00
2018-03-20T10:26:20.238Z,-57.00
2018-03-20T10:27:20.200Z,-58.00
2018-03-20T10:28:20.178Z,-58.00
2018-03-20T10:29:20.152Z,-58.00
2018-03-20T10:30:20.123Z,-57.00
2018-03-20T10:31:20.097Z,-57.00
2018-03-20T10:32:20.069Z,-57.00
2018-03-20T10:33:20.042Z,-57.00
2018-03-20T10:34:20.018Z,-58.00
2018-03-20T10:35:19.989Z,-57.00
2018-03-20T10:36:19.961Z,-55.00
2018-03-20T10:37:19.934Z,-56.00
2018-03-20T10:38:19.940Z,-56.00
2018-03-20T10:39:19.882Z,-56.00
2018-03-20T10:40:19.856Z,-56.00
2018-03-20T10:41:19.827Z,-56.00
2018-03-20T10:42:19.799Z,-57.00
2018-03-20T10:43:19.776Z,-59.00
2018-03-20T10:44:19.745Z,-58.00
2018-03-20T10:45:19.727Z,-55.00
2018-03-20T10:46:19.701Z,-57.00
2018-03-20T10:47:19.664Z,-57.00
2018-03-20T10:48:19.642Z,-58.00
2018-03-20T10:49:19.612Z,-57.00
2018-03-20T10:50:19.587Z,-56.00
2018-03-20T10:51:19.561Z,-55.00
2018-03-20T10:52:19.529Z,-60.00
2018-03-20T10:53:19.506Z,-53.00
2018-03-20T10:54:19.476Z,-53.00
2018-03-20T10:55:19.455Z,-53.00
2018-03-20T10:56:19.425Z,-53.00
2018-03-20T10:57:19.397Z,-53.00
2018-03-20T10:58:19.371Z,-53.00
2018-03-20T10:59:19.342Z,-53.00
2018-03-20T11:00:19.315Z,-53.00
2018-03-20T11:01:19.288Z,-53.00
2018-03-20T11:02:19.265Z,-53.00
2018-03-20T11:03:19.241Z,-53.00
2018-03-20T11:04:19.210Z,-53.00
2018-03-20T11:05:19.183Z,-53.00
2018-03-20T11:06:19.156Z,-53.00
2018-03-20T11:07:19.129Z,-53.00
2018-03-20T11:08:19.103Z,-53.00
2018-03-20T11:09:19.074Z,-53.00
2018-03-20T11:10:19.047Z,-53.00
2018-03-20T11:11:19.017Z,-53.00
2018-03-20T11:12:18.995Z,-53.00
2018-03-20T11:13:18.966Z,-53.00
2018-03-20T11:14:18.938Z,-53.00
2018-03-20T11:15:18.918Z,-53.00
2018-03-20T11:16:18.890Z,-53.00
2018-03-20T11:17:18.861Z,-53.00
2018-03-20T11:18:18.831Z,-53.00
2018-03-20T11:19:18.804Z,-53.00
2018-03-20T11:20:18.778Z,-53.00
2018-03-20T11:21:18.751Z,-53.00
2018-03-20T11:22:18.726Z,-53.00
2018-03-20T11:23:18.696Z,-53.00
2018-03-20T11:24:18.670Z,-53.00
2018-03-20T11:25:18.662Z,-53.00
2018-03-20T11:26:18.614Z,-53.00
2018-03-20T11:27:18.589Z,-53.00
2018-03-20T11:28:18.561Z,-53.00
2018-03-20T11:29:18.534Z,-53.00
2018-03-20T11:30:18.505Z,-53.00
2018-03-20T11:31:18.492Z,-53.00
2018-03-20T11:32:18.452Z,-53.00
2018-03-20T11:33:18.424Z,-53.00
2018-03-20T11:34:18.400Z,-53.00
2018-03-20T11:35:18.369Z,-53.00
2018-03-20T11:36:18.340Z,-53.00
2018-03-20T11:37:18.317Z,-53.00
2018-03-20T11:38:18.288Z,-53.00
2018-03-20T11:39:18.258Z,-53.00
2018-03-20T11:40:18.231Z,-53.00
2018-03-20T11:41:18.204Z,-52.00
2018-03-20T11:42:18.173Z,-53.00
2018-03-20T11:43:18.150Z,-52.00
2018-03-20T11:44:18.121Z,-53.00
2018-03-20T11:45:18.094Z,-52.00
2018-03-20T11:46:18.068Z,-53.00
2018-03-20T11:47:18.039Z,-53.00
2018-03-20T11:48:18.013Z,-52.00
2018-03-20T11:49:17.985Z,-52.00
2018-03-20T11:50:17.952Z,-52.00
2018-03-20T11:51:17.925Z,-52.00
2018-03-20T11:52:17.902Z,-52.00
2018-03-20T11:53:17.872Z,-52.00
2018-03-20T11:54:17.845Z,-52.00
2018-03-20T11:55:17.819Z,-53.00
2018-03-20T11:56:17.791Z,-53.00
2018-03-20T11:57:17.762Z,-53.00
2018-03-20T11:58:17.735Z,-53.00
2018-03-20T11:59:17.703Z,-53.00
2018-03-20T12:00:17.674Z,-52.00
2018-03-20T12:01:17.651Z,-53.00
2018-03-20T12:02:17.619Z,-52.00
2018-03-20T12:03:17.596Z,-52.00
2018-03-20T12:04:17.572Z,-53.00
2018-03-20T12:05:17.539Z,-52.00
2018-03-20T12:06:17.515Z,-53.00
2018-03-20T12:07:17.488Z,-55.00
2018-03-20T12:08:17.457Z,-54.00
2018-03-20T12:09:17.434Z,-55.00
2018-03-20T12:10:17.415Z,-55.00
2018-03-20T12:11:17.375Z,-55.00
2018-03-20T12:12:17.343Z,-55.00
2018-03-20T12:13:17.318Z,-56.00
2018-03-20T12:14:17.291Z,-55.00
2018-03-20T12:15:17.268Z,-56.00
2018-03-20T12:16:17.238Z,-57.00
2018-03-20T12:17:17.210Z,-56.00
2018-03-20T12:18:17.185Z,-57.00
2018-03-20T12:19:17.158Z,-56.00
2018-03-20T12:20:17.126Z,-55.00
2018-03-20T12:21:17.105Z,-53.00
2018-03-20T12:22:17.074Z,-53.00
2018-03-20T12:23:17.050Z,-52.00
2018-03-20T12:24:17.023Z,-53.00
2018-03-20T12:25:17.149Z,-52.00
2018-03-20T12:26:16.979Z,-52.00
2018-03-20T12:27:16.952Z,-52.00
2018-03-20T12:28:16.912Z,-52.00
2018-03-20T12:29:16.887Z,-52.00
2018-03-20T12:30:16.856Z,-52.00
2018-03-20T12:31:16.832Z,-52.00
2018-03-20T12:32:16.802Z,-52.00
2018-03-20T12:33:16.774Z,-52.00
2018-03-20T12:34:16.751Z,-52.00
2018-03-20T12:35:16.723Z,-52.00
2018-03-20T12:36:16.696Z,-52.00
2018-03-20T12:37:16.670Z,-52.00
2018-03-20T12:38:16.653Z,-52.00
2018-03-20T12:39:16.618Z,-52.00
2018-03-20T12:40:16.588Z,-52.00
2018-03-20T12:41:16.560Z,-52.00
2018-03-20T12:42:16.541Z,-52.00
2018-03-20T12:43:16.506Z,-52.00
2018-03-20T12:44:16.482Z,-53.00
2018-03-20T12:45:16.452Z,-52.00
2018-03-20T12:46:16.427Z,-52.00
2018-03-20T12:47:16.402Z,-52.00
2018-03-20T12:48:16.391Z,-52.00
2018-03-20T12:49:16.345Z,-52.00
2018-03-20T12:50:16.316Z,-52.00
2018-03-20T12:51:16.293Z,-52.00
2018-03-20T12:52:16.263Z,-52.00
2018-03-20T12:53:16.242Z,-52.00
2018-03-20T12:54:16.215Z,-53.00
2018-03-20T12:55:16.183Z,-53.00
2018-03-20T12:56:16.158Z,-53.00
2018-03-20T12:57:16.132Z,-53.00
2018-03-20T12:58:16.105Z,-53.00
2018-03-20T12:59:16.078Z,-53.00
2018-03-20T13:00:16.051Z,-52.00
2018-03-20T13:01:16.023Z,-53.00
2018-03-20T13:02:15.995Z,-52.00
2018-03-20T13:03:15.967Z,-52.00
2018-03-20T13:04:15.947Z,-52.00
2018-03-20T13:05:15.916Z,-52.00
2018-03-20T13:06:15.885Z,-52.00
2018-03-20T13:07:15.865Z,-53.00
2018-03-20T13:08:15.857Z,-53.00
2018-03-20T13:09:15.814Z,-53.00
2018-03-20T13:10:15.782Z,-52.00
2018-03-20T13:11:15.801Z,-52.00
2018-03-20T13:12:15.726Z,-52.00
2018-03-20T13:13:15.722Z,-53.00
2018-03-20T13:14:15.670Z,-53.00
2018-03-20T13:15:15.647Z,-53.00
2018-03-20T13:16:15.615Z,-52.00
2018-03-20T13:17:15.590Z,-53.00
2018-03-20T13:18:15.562Z,-52.00
2018-03-20T13:19:15.555Z,-52.00
2018-03-20T13:20:15.508Z,-52.00
2018-03-20T13:21:15.483Z,-52.00
2018-03-20T13:22:15.450Z,-52.00
2018-03-20T13:23:15.480Z,-52.00
2018-03-20T13:24:15.399Z,-52.00
2018-03-20T13:25:15.370Z,-53.00
2018-03-20T13:26:15.347Z,-53.00
2018-03-20T13:27:15.333Z,-53.00
2018-03-20T13:28:15.294Z,-53.00
2018-03-20T13:29:15.268Z,-53.00
2018-03-20T13:30:15.234Z,-53.00
2018-03-20T13:31:15.210Z,-53.00
2018-03-20T13:32:15.183Z,-53.00
2018-03-20T13:33:15.153Z,-53.00
2018-03-20T13:34:15.127Z,-53.00
2018-03-20T13:35:15.100Z,-53.00
2018-03-20T13:36:15.076Z,-53.00
2018-03-20T13:37:15.045Z,-53.00
2018-03-20T13:38:15.019Z,-53.00
2018-03-20T13:39:14.998Z,-53.00
2018-03-20T13:40:14.965Z,-53.00
2018-03-20T13:41:14.939Z,-53.00
2018-03-20T13:42:14.911Z,-53.00
2018-03-20T13:43:14.884Z,-53.00
2018-03-20T13:44:14.864Z,-52.00
2018-03-20T13:45:14.837Z,-53.00
2018-03-20T13:46:14.803Z,-53.00
2018-03-20T13:47:14.777Z,-53.00
2018-03-20T13:48:14.750Z,-53.00
2018-03-20T13:49:14.723Z,-53.00
2018-03-20T13:50:14.700Z,-53.00
2018-03-20T13:51:14.666Z,-53.00
2018-03-20T13:52:14.643Z,-53.00
2018-03-20T13:53:14.615Z,-53.00
2018-03-20T13:54:14.587Z,-53.00
2018-03-20T13:55:14.560Z,-53.00
2018-03-20T13:56:14.539Z,-53.00
2018-03-20T13:57:14.507Z,-53.00
2018-03-20T13:58:14.478Z,-53.00
2018-03-20T13:59:14.456Z,-53.00
2018-03-20T14:00:14.425Z,-53.00
2018-03-20T14:01:14.402Z,-53.00
2018-03-20T14:02:14.373Z,-53.00
2018-03-20T14:03:14.344Z,-53.00
2018-03-20T14:04:14.320Z,-53.00
2018-03-20T14:05:14.300Z,-53.00
2018-03-20T14:06:14.321Z,-53.00
2018-03-20T14:07:14.243Z,-53.00
2018-03-20T14:08:14.213Z,-54.00
2018-03-20T14:09:14.185Z,-54.00
2018-03-20T14:10:14.162Z,-54.00
2018-03-20T14:11:14.158Z,-54.00
2018-03-20T14:12:14.106Z,-53.00
2018-03-20T14:13:14.083Z,-54.00
2018-03-20T14:14:14.048Z,-54.00
2018-03-20T14:15:14.024Z,-54.00
2018-03-20T14:16:14.000Z,-54.00
2018-03-20T14:17:13.971Z,-55.00
2018-03-20T14:18:13.942Z,-55.00
2018-03-20T14:19:13.946Z,-54.00
2018-03-20T14:20:13.893Z,-55.00
2018-03-20T14:21:13.866Z,-54.00
2018-03-20T14:22:13.839Z,-54.00
2018-03-20T14:23:13.812Z,-53.00
2018-03-20T14:24:13.785Z,-54.00
2018-03-20T14:25:13.760Z,-54.00
2018-03-20T14:26:13.732Z,-53.00
2018-03-20T14:27:13.708Z,-54.00
2018-03-20T14:28:13.684Z,-53.00
2018-03-20T14:29:13.657Z,-53.00
2018-03-20T14:30:13.627Z,-53.00
2018-03-20T14:31:13.609Z,-53.00
2018-03-20T14:32:13.572Z,-53.00
2018-03-20T14:33:13.548Z,-53.00
2018-03-20T14:34:13.522Z,-54.00
2018-03-20T14:35:13.499Z,-54.00
2018-03-20T14:36:13.476Z,-53.00
2018-03-20T14:37:13.445Z,-53.00
2018-03-20T14:38:13.416Z,-54.00
2018-03-20T14:39:13.392Z,-53.00
2018-03-20T14:40:13.373Z,-53.00
2018-03-20T14:41:13.342Z,-53.00
2018-03-20T14:42:13.313Z,-53.00
2018-03-20T14:43:13.291Z,-53.00
2018-03-20T14:44:13.259Z,-54.00
2018-03-20T14:45:13.245Z,-54.00
2018-03-20T14:46:13.206Z,-53.00
2018-03-20T14:47:13.179Z,-53.00
2018-03-20T14:48:13.161Z,-54.00
2018-03-20T14:49:13.134Z,-53.00
2018-03-20T14:50:13.108Z,-54.00
2018-03-20T14:51:13.076Z,-54.00
2018-03-20T14:52:13.048Z,-54.00
2018-03-20T14:53:13.034Z,-54.00
2018-03-20T14:54:12.996Z,-54.00
2018-03-20T14:55:12.975Z,-54.00
2018-03-20T14:56:12.944Z,-54.00
2018-03-20T14:57:12.917Z,-54.00
2018-03-20T14:58:12.891Z,-54.00
2018-03-20T14:59:12.864Z,-53.00
2018-03-20T15:00:12.832Z,-54.00
2018-03-20T15:01:12.807Z,-54.00
2018-03-20T15:02:12.799Z,-53.00
2018-03-20T15:03:12.752Z,-54.00
2018-03-20T15:04:12.727Z,-54.00
2018-03-20T15:05:12.705Z,-54.00
2018-03-20T15:06:12.675Z,-54.00
2018-03-20T15:07:12.650Z,-54.00
2018-03-20T15:08:12.623Z,-54.00
2018-03-20T15:09:12.599Z,-54.00
2018-03-20T15:10:12.567Z,-54.00
2018-03-20T15:11:12.541Z,-54.00
2018-03-20T15:12:12.516Z,-54.00
2018-03-20T15:13:12.495Z,-54.00
2018-03-20T15:14:12.461Z,-54.00
2018-03-20T15:15:12.440Z,-54.00
2018-03-20T15:16:12.412Z,-54.00
2018-03-20T15:17:12.378Z,-54.00
2018-03-20T15:18:12.357Z,-54.00
2018-03-20T15:19:12.328Z,-54.00
2018-03-20T15:20:12.319Z,-54.00
2018-03-20T15:21:12.278Z,-52.00
2018-03-20T15:22:12.249Z,-52.00
2018-03-20T15:23:12.218Z,-53.00
2018-03-20T15:24:12.194Z,-51.00
2018-03-20T15:25:12.167Z,-51.00
2018-03-20T15:26:12.146Z,-52.00
2018-03-20T15:27:12.118Z,-52.00
2018-03-20T15:28:12.090Z,-52.00
2018-03-20T15:29:12.091Z,-52.00
2018-03-20T15:30:12.041Z,-52.00
2018-03-20T15:31:12.012Z,-52.00
2018-03-20T15:32:11.984Z,-52.00
2018-03-20T15:33:11.955Z,-52.00
2018-03-20T15:34:11.933Z,-52.00
2018-03-20T15:35:11.902Z,-52.00
2018-03-20T15:36:11.876Z,-52.00
2018-03-20T15:37:11.852Z,-52.00
2018-03-20T15:38:11.822Z,-52.00
2018-03-20T15:39:11.796Z,-52.00
2018-03-20T15:40:11.773Z,-52.00
2018-03-20T15:41:11.744Z,-52.00
2018-03-20T15:42:11.719Z,-51.00
2018-03-20T15:43:11.691Z,-52.00
2018-03-20T15:44:11.665Z,-52.00
2018-03-20T15:45:11.639Z,-52.00
2018-03-20T15:46:11.613Z,-52.00
2018-03-20T15:47:11.584Z,-51.00
2018-03-20T15:48:11.559Z,-52.00
2018-03-20T15:49:11.531Z,-52.00
2018-03-20T15:50:11.507Z,-52.00
2018-03-20T15:51:11.478Z,-52.00
2018-03-20T15:52:11.452Z,-52.00
2018-03-20T15:53:11.426Z,-52.00
2018-03-20T15:54:11.394Z,-52.00
2018-03-20T15:55:11.371Z,-52.00
2018-03-20T15:56:11.343Z,-52.00
2018-03-20T15:57:11.321Z,-52.00
2018-03-20T15:58:11.293Z,-52.00
2018-03-20T15:59:11.264Z,-52.00
2018-03-20T16:00:11.261Z,-52.00
2018-03-20T16:01:11.215Z,-52.00
2018-03-20T16:02:11.185Z,-52.00
2018-03-20T16:03:11.159Z,-52.00
2018-03-20T16:04:11.134Z,-52.00
2018-03-20T16:05:11.104Z,-51.00
2018-03-20T16:06:11.075Z,-51.00
2018-03-20T16:07:11.054Z,-52.00
2018-03-20T16:08:11.025Z,-52.00
2018-03-20T16:09:11.011Z,-52.00
2018-03-20T16:10:10.970Z,-52.00
2018-03-20T16:11:10.945Z,-51.00
2018-03-20T16:12:10.916Z,-51.00
2018-03-20T16:13:10.890Z,-52.00
2018-03-20T16:14:10.863Z,-52.00
2018-03-20T16:15:10.839Z,-52.00
2018-03-20T16:16:10.810Z,-52.00
2018-03-20T16:17:10.786Z,-52.00
2018-03-20T16:18:10.753Z,-52.00
2018-03-20T16:19:10.724Z,-52.00
2018-03-20T16:20:10.701Z,-52.00
2018-03-20T16:21:10.675Z,-52.00
2018-03-20T16:22:10.648Z,-52.00
2018-03-20T16:23:10.621Z,-51.00
2018-03-20T16:24:10.590Z,-51.00
2018-03-20T16:25:10.568Z,-51.00
2018-03-20T16:26:10.537Z,-51.00
2018-03-20T16:27:10.518Z,-51.00
2018-03-20T16:28:10.486Z,-51.00
2018-03-20T16:29:10.456Z,-51.00
2018-03-20T16:30:10.424Z,-52.00
2018-03-20T16:31:10.407Z,-51.00
2018-03-20T16:32:10.375Z,-51.00
2018-03-20T16:33:10.349Z,-51.00
2018-03-20T16:34:10.341Z,-51.00
2018-03-20T16:35:10.297Z,-52.00
2018-03-20T16:36:10.270Z,-53.00
2018-03-20T16:37:10.239Z,-53.00
2018-03-20T16:38:10.219Z,-53.00
2018-03-20T16:39:10.186Z,-54.00
2018-03-20T16:40:10.162Z,-54.00
2018-03-20T16:41:10.137Z,-53.00
2018-03-20T16:42:10.102Z,-54.00
2018-03-20T16:43:10.079Z,-53.00
2018-03-20T16:44:10.052Z,-53.00
2018-03-20T16:45:10.033Z,-54.00
2018-03-20T16:46:09.997Z,-54.00
2018-03-20T16:47:09.974Z,-53.00
2018-03-20T16:48:09.943Z,-54.00
2018-03-20T16:49:09.925Z,-53.00
2018-03-20T16:50:09.897Z,-53.00
2018-03-20T16:51:09.865Z,-54.00
2018-03-20T16:52:09.839Z,-54.00
2018-03-20T16:53:09.813Z,-54.00
2018-03-20T16:54:09.786Z,-54.00
2018-03-20T16:55:09.759Z,-54.00
2018-03-20T16:56:09.731Z,-53.00
2018-03-20T16:57:09.710Z,-53.00
2018-03-20T16:58:09.679Z,-53.00
2018-03-20T16:59:09.653Z,-54.00
2018-03-20T17:00:09.628Z,-54.00
2018-03-20T17:01:09.598Z,-54.00
2018-03-20T17:02:09.574Z,-54.00
2018-03-20T17:03:09.544Z,-54.00
2018-03-20T17:04:09.515Z,-53.00
2018-03-20T17:05:09.494Z,-54.00
2018-03-20T17:06:09.466Z,-55.00
2018-03-20T17:07:09.437Z,-54.00
2018-03-20T17:08:09.412Z,-53.00
2018-03-20T17:09:09.387Z,-54.00
2018-03-20T17:10:09.357Z,-54.00
2018-03-20T17:11:09.331Z,-54.00
2018-03-20T17:12:09.310Z,-55.00
2018-03-20T17:13:09.284Z,-54.00
2018-03-20T17:14:09.263Z,-55.00
2018-03-20T17:15:09.227Z,-54.00
2018-03-20T17:16:09.195Z,-54.00
2018-03-20T17:17:09.228Z,-54.00
2018-03-20T17:18:09.147Z,-52.00
2018-03-20T17:19:09.113Z,-53.00
2018-03-20T17:20:09.086Z,-53.00
2018-03-20T17:21:09.067Z,-52.00
2018-03-20T17:22:09.043Z,-52.00
2018-03-20T17:23:09.012Z,-52.00
2018-03-20T17:24:08.988Z,-52.00
2018-03-20T17:25:08.962Z,-53.00
2018-03-20T17:26:08.935Z,-52.00
2018-03-20T17:27:08.908Z,-52.00
2018-03-20T17:28:08.878Z,-52.00
2018-03-20T17:29:08.855Z,-52.00
2018-03-20T17:30:08.833Z,-52.00
2018-03-20T17:31:08.862Z,-52.00
2018-03-20T17:32:08.784Z,-53.00
2018-03-20T17:33:08.744Z,-52.00
2018-03-20T17:34:08.723Z,-52.00
2018-03-20T17:35:08.731Z,-52.00
2018-03-20T17:36:08.670Z,-52.00
2018-03-20T17:37:08.642Z,-52.00
2018-03-20T17:38:08.614Z,-52.00
2018-03-20T17:39:08.588Z,-52.00
2018-03-20T17:40:08.563Z,-52.00
2018-03-20T17:41:08.534Z,-52.00
2018-03-20T17:42:08.507Z,-52.00
2018-03-20T17:43:08.475Z,-52.00
2018-03-20T17:44:08.452Z,-52.00
2018-03-20T17:45:08.435Z,-52.00
2018-03-20T17:46:08.398Z,-52.00
2018-03-20T17:47:08.373Z,-53.00
2018-03-20T17:48:08.349Z,-53.00
2018-03-20T17:49:08.320Z,-52.00
2018-03-20T17:50:08.292Z,-52.00
2018-03-20T17:51:08.269Z,-52.00
2018-03-20T17:52:08.248Z,-52.00
2018-03-20T17:53:08.215Z,-52.00
2018-03-20T17:54:08.183Z,-53.00
2018-03-20T17:55:08.162Z,-52.00
2018-03-20T17:56:08.131Z,-52.00
2018-03-20T17:57:08.108Z,-52.00
2018-03-20T17:58:08.077Z,-52.00
2018-03-20T17:59:08.056Z,-52.00
2018-03-20T18:00:08.020Z,-52.00
2018-03-20T18:01:07.997Z,-52.00
2018-03-20T18:02:07.970Z,-52.00
2018-03-20T18:03:07.942Z,-52.00
2018-03-20T18:04:07.911Z,-52.00
2018-03-20T18:05:07.890Z,-52.00
2018-03-20T18:06:07.857Z,-52.00
2018-03-20T18:07:07.831Z,-52.00
2018-03-20T18:08:07.804Z,-53.00
2018-03-20T18:09:07.777Z,-52.00
2018-03-20T18:10:07.748Z,-52.00
2018-03-20T18:11:07.732Z,-52.00
2018-03-20T18:12:07.696Z,-53.00
2018-03-20T18:13:07.667Z,-50.00
2018-03-20T18:14:07.636Z,-50.00
2018-03-20T18:15:07.618Z,-51.00
2018-03-20T18:16:07.585Z,-51.00
2018-03-20T18:17:07.591Z,-50.00
2018-03-20T18:18:07.531Z,-50.00
2018-03-20T18:19:07.503Z,-50.00
2018-03-20T18:20:07.477Z,-51.00
2018-03-20T18:21:07.450Z,-50.00
2018-03-20T18:22:07.422Z,-50.00
2018-03-20T18:23:07.395Z,-50.00
2018-03-20T18:24:07.370Z,-50.00
2018-03-20T18:25:07.342Z,-50.00
2018-03-20T18:26:07.313Z,-50.00
2018-03-20T18:27:07.285Z,-50.00
2018-03-20T18:28:07.327Z,-50.00
2018-03-20T18:29:07.234Z,-51.00
2018-03-20T18:30:07.206Z,-49.00
2018-03-20T18:31:07.181Z,-50.00
2018-03-20T18:32:07.162Z,-49.00
2018-03-20T18:33:07.125Z,-51.00
2018-03-20T18:34:07.099Z,-51.00
2018-03-20T18:35:07.070Z,-50.00
2018-03-20T18:36:07.038Z,-51.00
2018-03-20T18:37:07.018Z,-51.00
2018-03-20T18:38:06.994Z,-52.00
2018-03-20T18:39:06.962Z,-51.00
2018-03-20T18:40:06.938Z,-52.00
2018-03-20T18:41:06.912Z,-51.00
2018-03-20T18:42:06.885Z,-52.00
2018-03-20T18:43:06.858Z,-51.00
2018-03-20T18:44:06.828Z,-51.00
2018-03-20T18:45:06.824Z,-50.00
2018-03-20T18:46:06.774Z,-50.00
2018-03-20T18:47:06.747Z,-50.00
2018-03-20T18:48:06.719Z,-51.00
2018-03-20T18:49:06.692Z,-51.00
2018-03-20T18:50:06.678Z,-50.00
2018-03-20T18:51:06.645Z,-50.00
2018-03-20T18:52:06.663Z,-50.00
2018-03-20T18:53:06.593Z,-51.00
2018-03-20T18:54:06.560Z,-50.00
2018-03-20T18:55:06.534Z,-50.00
2018-03-20T18:56:06.509Z,-51.00
2018-03-20T18:57:06.475Z,-51.00
2018-03-20T18:58:06.452Z,-51.00
2018-03-20T18:59:06.428Z,-52.00
2018-03-20T19:00:06.402Z,-51.00
2018-03-20T19:01:06.373Z,-52.00
2018-03-20T19:02:06.345Z,-51.00
2018-03-20T19:03:06.319Z,-51.00
2018-03-20T19:04:06.291Z,-51.00
2018-03-20T19:05:06.265Z,-51.00
2018-03-20T19:06:06.235Z,-51.00
2018-03-20T19:07:06.206Z,-51.00
2018-03-20T19:08:06.189Z,-51.00
2018-03-20T19:09:06.157Z,-51.00
2018-03-20T19:10:06.129Z,-51.00
2018-03-20T19:11:06.098Z,-51.00
2018-03-20T19:12:06.074Z,-51.00
2018-03-20T19:13:06.044Z,-51.00
2018-03-20T19:14:06.019Z,-51.00
2018-03-20T19:15:05.991Z,-51.00
2018-03-20T19:16:05.963Z,-51.00
2018-03-20T19:17:05.941Z,-51.00
2018-03-20T19:18:05.911Z,-51.00
2018-03-20T19:19:05.884Z,-51.00
2018-03-20T19:20:05.860Z,-51.00
2018-03-20T19:21:05.836Z,-51.00
2018-03-20T19:22:05.799Z,-51.00
2018-03-20T19:23:05.777Z,-51.00
2018-03-20T19:24:05.746Z,-51.00
2018-03-20T19:25:05.725Z,-51.00
2018-03-20T19:26:05.692Z,-51.00
2018-03-20T19:27:05.666Z,-51.00
2018-03-20T19:28:05.645Z,-51.00
2018-03-20T19:29:05.610Z,-51.00
2018-03-20T19:30:05.584Z,-51.00
2018-03-20T19:31:05.560Z,-51.00
2018-03-20T19:32:05.534Z,-51.00
2018-03-20T19:33:05.505Z,-51.00
2018-03-20T19:34:05.478Z,-51.00
2018-03-20T19:35:05.450Z,-51.00
2018-03-20T19:36:05.425Z,-51.00
2018-03-20T19:37:05.395Z,-51.00
2018-03-20T19:38:05.373Z,-51.00
2018-03-20T19:39:05.343Z,-51.00
2018-03-20T19:40:05.316Z,-51.00
2018-03-20T19:41:05.321Z,-51.00
2018-03-20T19:42:05.265Z,-51.00
2018-03-20T19:43:05.234Z,-51.00
2018-03-20T19:44:05.210Z,-51.00
2018-03-20T19:45:05.183Z,-51.00
2018-03-20T19:46:05.162Z,-51.00
2018-03-20T19:47:05.139Z,-51.00
2018-03-20T19:48:05.100Z,-51.00
2018-03-20T19:49:05.077Z,-51.00
2018-03-20T19:50:05.043Z,-51.00
2018-03-20T19:51:05.018Z,-51.00
2018-03-20T19:52:04.992Z,-51.00
2018-03-20T19:53:04.980Z,-51.00
2018-03-20T19:54:04.938Z,-51.00
2018-03-20T19:55:04.916Z,-51.00
2018-03-20T19:56:04.883Z,-51.00
2018-03-20T19:57:05.016Z,-51.00
2018-03-20T19:58:04.829Z,-51.00
2018-03-20T19:59:04.802Z,-51.00
2018-03-20T20:00:04.776Z,-51.00
2018-03-20T20:01:04.748Z,-51.00
2018-03-20T20:02:04.720Z,-51.00
2018-03-20T20:03:04.694Z,-51.00
2018-03-20T20:04:04.664Z,-51.00
2018-03-20T20:05:04.647Z,-51.00
2018-03-20T20:06:04.614Z,-51.00
2018-03-20T20:07:04.587Z,-51.00
2018-03-20T20:08:04.560Z,-51.00